createdAt,value
2023-02-15T00:08:01.529Z,3.10
2023-02-15T00:10:56.424Z,3.20
2023-02-15T00:16:32.927Z,3.10
2023-02-15T00:19:19.325Z,3.10
2023-02-15T00:24:58.202Z,3.30
2023-02-15T00:30:43.827Z,3.20
2023-02-15T00:33:45.293Z,3.20
2023-02-15T00:36:18.192Z,3.20
2023-02-15T00:38:49.245Z,3.10
2023-02-15T00:41:21.231Z,3.10
2023-02-15T00:47:27.164Z,3.00
2023-02-15T00:50:01.273Z,3.00
2023-02-15T00:52:39.574Z,2.90
2023-02-15T00:55:42.234Z,3.00
2023-02-15T01:01:14.753Z,3.00
2023-02-15T01:03:48.527Z,3.00
2023-02-15T01:06:39.830Z,3.00
2023-02-15T01:09:19.234Z,2.90
2023-02-15T01:12:12.081Z,2.90
2023-02-15T01:14:51.037Z,2.90
2023-02-15T01:17:29.500Z,2.90
2023-02-15T01:20:07.677Z,3.00
2023-02-15T01:22:44.533Z,2.90
2023-02-15T01:25:17.000Z,2.90
2023-02-15T01:30:45.058Z,2.90
2023-02-15T01:33:24.469Z,3.00
2023-02-15T01:39:06.886Z,2.80
2023-02-15T01:42:07.510Z,2.90
2023-02-15T01:45:04.019Z,3.00
2023-02-15T01:47:49.428Z,3.00
2023-02-15T01:56:31.658Z,2.80
2023-02-15T01:59:11.504Z,2.70
2023-02-15T02:01:47.376Z,2.80
2023-02-15T02:04:26.063Z,2.80
2023-02-15T02:07:16.323Z,2.80
2023-02-15T02:09:57.453Z,2.80
2023-02-15T02:12:31.688Z,2.90
2023-02-15T02:15:05.118Z,2.80
2023-02-15T02:18:00.962Z,2.90
2023-02-15T02:20:47.230Z,2.80
2023-02-15T02:23:50.380Z,2.80
2023-02-15T02:26:40.470Z,2.70
2023-02-15T02:29:25.250Z,2.80
2023-02-15T05:48:32.776Z,1.90
2023-02-15T05:51:44.696Z,1.90
2023-02-15T05:54:28.932Z,1.90
2023-02-15T06:00:19.870Z,1.80
2023-02-15T06:02:50.446Z,1.70
2023-02-15T06:05:38.770Z,1.80
2023-02-15T06:08:33.621Z,1.80
2023-02-15T06:11:27.208Z,1.80
2023-02-15T06:14:18.768Z,1.90
2023-02-15T06:16:54.284Z,1.90
2023-02-15T06:19:39.406Z,1.80
2023-02-15T06:22:12.381Z,1.80
2023-02-15T06:24:59.096Z,1.80
2023-02-15T06:27:46.656Z,1.80
2023-02-15T06:30:37.676Z,1.80
2023-02-15T06:36:26.600Z,1.70
2023-02-15T06:39:14.604Z,1.70
2023-02-15T06:42:10.796Z,1.80
2023-02-15T06:44:50.706Z,1.80
2023-02-15T06:50:40.521Z,1.80
2023-02-15T06:53:13.143Z,1.80
2023-02-15T06:55:58.924Z,1.80
2023-02-15T06:58:40.270Z,1.90
2023-02-15T07:04:20.885Z,1.90
2023-02-15T07:07:07.718Z,1.90
2023-02-15T07:13:00.054Z,1.90
2023-02-15T07:15:35.861Z,2.00
2023-02-15T07:18:22.749Z,2.00
2023-02-15T07:21:10.915Z,2.00
2023-02-15T07:24:18.924Z,2.10
2023-02-15T07:26:57.152Z,2.30
2023-02-15T07:32:29.744Z,2.50
2023-02-15T07:35:04.761Z,2.50
2023-02-15T07:37:41.273Z,2.60
2023-02-15T07:40:38.612Z,2.60
2023-02-15T07:46:16.157Z,2.80
2023-02-15T07:48:45.013Z,2.90
2023-02-15T07:51:15.391Z,2.90
2023-02-15T07:53:44.206Z,2.90
2023-02-15T07:56:13.806Z,2.90
2023-02-15T07:58:57.156Z,3.00
2023-02-15T08:01:28.664Z,3.10
2023-02-15T08:04:00.595Z,3.20
2023-02-15T08:06:29.840Z,3.20
2023-02-15T08:08:58.773Z,3.20
2023-02-15T08:11:30.342Z,3.30
2023-02-15T08:14:01.032Z,3.40
2023-02-15T08:16:32.572Z,3.60
2023-02-15T08:19:01.454Z,3.70
2023-02-15T08:21:30.495Z,3.90
2023-02-15T08:23:59.421Z,4.00
2023-02-15T08:26:28.870Z,3.90
2023-02-15T08:28:57.691Z,4.00
2023-02-15T08:31:26.510Z,3.90
2023-02-15T08:33:57.301Z,4.00
2023-02-15T08:36:26.671Z,4.00
2023-02-15T08:38:55.570Z,4.20
2023-02-15T08:41:25.035Z,4.20
2023-02-15T08:43:54.948Z,4.30
2023-02-15T08:46:24.227Z,4.50
2023-02-15T08:48:53.199Z,4.50
2023-02-15T08:51:24.254Z,4.50
2023-02-15T08:53:53.752Z,4.70
2023-02-15T08:56:23.033Z,5.00
2023-02-15T08:58:51.675Z,5.00
2023-02-15T09:01:21.639Z,5.00
2023-02-15T09:03:51.215Z,5.00
2023-02-15T09:06:19.994Z,5.10
2023-02-15T09:08:50.237Z,5.20
2023-02-15T09:11:24.310Z,5.20
2023-02-15T09:13:55.522Z,5.20
2023-02-15T09:16:24.486Z,5.30
2023-02-15T09:18:53.337Z,5.40
2023-02-15T09:21:23.200Z,5.50
2023-02-15T09:23:55.026Z,5.70
2023-02-15T09:26:24.812Z,5.80
2023-02-15T09:28:56.644Z,5.90
2023-02-15T09:31:28.300Z,6.10
2023-02-15T09:33:58.065Z,6.20
2023-02-15T09:36:27.858Z,6.20
2023-02-15T09:38:59.848Z,6.20
2023-02-15T09:41:38.719Z,6.40
2023-02-15T09:44:13.463Z,6.50
2023-02-15T09:46:50.563Z,6.70
2023-02-15T09:49:22.872Z,6.80
2023-02-15T09:52:00.505Z,6.90
2023-02-15T09:54:36.805Z,7.00
2023-02-15T09:57:10.266Z,7.00
2023-02-15T09:59:45.113Z,7.10
2023-02-15T10:02:22.942Z,7.10
2023-02-15T10:04:57.393Z,7.10
2023-02-15T10:07:37.207Z,7.20
2023-02-15T10:10:12.580Z,7.30
2023-02-15T10:12:46.180Z,7.40
2023-02-15T10:15:28.624Z,7.50
2023-02-15T10:18:05.235Z,7.50
2023-02-15T10:20:38.030Z,7.70
2023-02-15T10:23:14.351Z,7.80
2023-02-15T10:25:49.394Z,7.90
2023-02-15T10:28:19.970Z,7.90
2023-02-15T10:30:49.992Z,7.90
2023-02-15T10:33:39.689Z,7.90
2023-02-15T10:36:14.370Z,8.00
2023-02-15T10:38:45.388Z,8.20
2023-02-15T10:41:25.277Z,8.30
2023-02-15T10:44:14.261Z,8.30
2023-02-15T10:46:51.949Z,8.40
2023-02-15T10:49:27.070Z,8.60
2023-02-15T10:52:04.272Z,8.70
2023-02-15T10:54:38.673Z,8.80
2023-02-15T10:57:17.386Z,8.70
2023-02-15T10:59:57.417Z,8.80
2023-02-15T11:02:30.519Z,8.90
2023-02-15T11:05:06.246Z,9.00
2023-02-15T11:10:52.394Z,9.10
2023-02-15T11:13:51.617Z,9.30
2023-02-15T11:16:49.553Z,9.30
2023-02-15T11:19:36.993Z,9.30
2023-02-15T11:22:20.515Z,9.50
2023-02-15T11:24:55.455Z,9.50
2023-02-15T11:27:43.756Z,9.60
2023-02-15T11:30:16.769Z,9.50
2023-02-15T11:32:57.349Z,9.60
2023-02-15T11:35:55.403Z,9.70
2023-02-15T11:38:37.308Z,9.70
2023-02-15T11:41:18.905Z,9.80
2023-02-15T11:44:03.887Z,9.70
2023-02-15T11:46:44.426Z,9.70
2023-02-15T11:49:27.657Z,9.70
2023-02-15T11:52:05.313Z,9.70
2023-02-15T11:57:37.944Z,10.00
2023-02-15T12:00:13.726Z,10.10
2023-02-15T12:02:47.397Z,10.20
2023-02-15T12:05:31.224Z,10.20
2023-02-15T12:08:06.585Z,10.20
2023-02-15T12:10:52.687Z,10.20
2023-02-15T12:13:28.734Z,10.30
2023-02-15T12:16:22.788Z,10.40
2023-02-15T12:18:56.667Z,10.50
2023-02-15T12:21:48.662Z,10.50
2023-02-15T12:27:25.256Z,10.30
2023-02-15T12:30:10.166Z,10.30
2023-02-15T12:32:54.547Z,10.40
2023-02-15T12:35:36.362Z,10.50
2023-02-15T12:38:32.826Z,10.50
2023-02-15T12:44:29.416Z,10.50
2023-02-15T12:47:07.901Z,10.50
2023-02-15T12:49:48.750Z,10.50
2023-02-15T12:52:38.710Z,10.40
2023-02-15T12:55:35.274Z,10.40
2023-02-15T12:58:24.502Z,10.40
2023-02-15T13:01:20.472Z,10.40
2023-02-15T13:04:06.877Z,10.40
2023-02-15T13:06:53.791Z,10.50
2023-02-15T13:09:40.687Z,10.60
2023-02-15T13:12:23.604Z,10.60
2023-02-15T13:14:59.920Z,10.80
2023-02-15T13:17:40.112Z,11.00
2023-02-15T13:20:26.060Z,11.10
2023-02-15T13:23:14.983Z,11.20
2023-02-15T13:26:09.099Z,11.20
2023-02-15T13:28:55.588Z,11.20
2023-02-15T13:37:28.146Z,11.40
2023-02-15T13:40:21.355Z,11.40
2023-02-15T13:43:17.448Z,11.50
2023-02-15T13:46:23.593Z,11.40
2023-02-15T13:49:37.586Z,11.40
2023-02-15T13:52:24.953Z,11.50
2023-02-15T13:55:17.328Z,11.40
2023-02-15T13:58:11.269Z,11.40
2023-02-15T14:00:53.540Z,11.50
2023-02-15T14:03:46.688Z,11.50
2023-02-15T14:06:46.098Z,11.60
2023-02-15T14:09:36.539Z,11.60
2023-02-15T14:12:29.088Z,11.60
2023-02-15T14:15:30.605Z,11.50
2023-02-15T14:18:10.032Z,11.30
2023-02-15T14:20:53.403Z,11.50
2023-02-15T14:23:51.671Z,11.50
2023-02-15T14:26:41.404Z,11.70
2023-02-15T14:29:35.313Z,11.60
2023-02-15T14:32:18.731Z,11.50
2023-02-15T14:34:56.530Z,11.40
2023-02-15T14:37:42.930Z,11.60
2023-02-15T14:41:07.926Z,11.60
2023-02-15T14:44:01.647Z,11.50
2023-02-15T14:46:36.853Z,11.60
2023-02-15T14:52:29.840Z,11.40
2023-02-15T14:58:05.827Z,11.20
2023-02-15T15:00:58.224Z,11.30
2023-02-15T15:03:51.625Z,11.30
2023-02-15T15:06:29.220Z,11.20
2023-02-15T15:09:05.501Z,11.20
2023-02-15T15:12:22.189Z,11.20
2023-02-15T15:15:01.352Z,11.30
2023-02-15T15:21:07.255Z,11.30
2023-02-15T15:24:10.290Z,11.30
2023-02-15T15:30:08.616Z,11.40
2023-02-15T15:32:50.138Z,11.30
2023-02-15T15:39:02.454Z,11.30
2023-02-15T15:42:02.776Z,11.30
2023-02-15T15:45:07.267Z,11.30
2023-02-15T15:48:07.317Z,11.20
2023-02-15T15:50:48.759Z,11.10
2023-02-15T15:53:24.438Z,11.20
2023-02-15T15:56:00.430Z,11.00
2023-02-15T15:58:32.742Z,11.00
2023-02-15T16:04:38.043Z,10.90
2023-02-15T16:07:27.162Z,10.80
2023-02-15T16:10:16.976Z,10.80
2023-02-15T16:13:07.612Z,10.80
2023-02-15T16:16:02.563Z,10.70
2023-02-15T16:24:50.085Z,10.30
2023-02-15T16:28:08.885Z,10.20
2023-02-15T16:30:53.557Z,10.10
2023-02-15T16:36:56.472Z,9.60
2023-02-15T16:39:30.148Z,9.60
2023-02-15T16:42:15.071Z,9.60
2023-02-15T16:44:57.758Z,9.60
2023-02-15T16:47:47.522Z,9.50
2023-02-15T16:50:55.109Z,9.30
2023-02-15T16:53:38.281Z,9.20
2023-02-15T16:56:28.629Z,9.10
2023-02-15T17:02:37.192Z,9.10
2023-02-15T17:05:32.350Z,9.10
2023-02-15T17:08:36.300Z,9.10
2023-02-15T17:11:32.091Z,9.10
2023-02-15T17:14:46.583Z,8.90
2023-02-15T17:17:25.911Z,8.90
2023-02-15T17:23:22.739Z,8.80
2023-02-15T17:25:55.829Z,8.70
2023-02-15T17:28:38.648Z,8.70
2023-02-15T17:34:49.428Z,8.50
2023-02-15T17:37:36.186Z,8.50
2023-02-15T17:40:34.121Z,8.40
2023-02-15T17:43:20.420Z,8.40
2023-02-15T17:46:04.836Z,8.30
2023-02-15T17:48:57.456Z,8.40
2023-02-15T17:51:47.991Z,8.40
2023-02-15T17:54:35.022Z,8.40
2023-02-15T17:57:07.244Z,8.30
2023-02-15T17:59:52.085Z,8.30
2023-02-15T18:02:44.193Z,8.30
2023-02-15T18:11:50.898Z,8.20
2023-02-15T18:14:42.944Z,8.20
2023-02-15T18:17:32.960Z,8.10
2023-02-15T18:20:10.731Z,8.00
2023-02-15T18:22:40.318Z,8.00
2023-02-15T18:28:04.117Z,7.90
2023-02-15T18:30:34.101Z,7.90
2023-02-15T18:33:21.821Z,7.90
2023-02-15T18:35:54.446Z,7.80
2023-02-15T18:38:49.824Z,7.80
2023-02-15T18:41:29.873Z,7.80
2023-02-15T18:47:10.012Z,7.70
2023-02-15T18:49:46.321Z,7.60
2023-02-15T18:55:18.758Z,7.50
2023-02-15T18:57:59.171Z,7.50
2023-02-15T19:00:50.741Z,7.50
2023-02-15T19:03:32.610Z,7.40
2023-02-15T19:06:08.552Z,7.40
2023-02-15T19:08:40.940Z,7.30
2023-02-15T19:11:16.995Z,7.10
2023-02-15T19:13:51.659Z,7.30
2023-02-15T19:16:57.522Z,7.20
2023-02-15T19:19:39.679Z,7.20
2023-02-15T19:22:19.195Z,7.10
2023-02-15T19:24:54.856Z,7.20
2023-02-15T19:27:39.072Z,7.10
2023-02-15T19:30:31.900Z,7.10
2023-02-15T19:36:30.391Z,7.00
2023-02-15T19:39:23.816Z,6.90
2023-02-15T19:42:10.118Z,6.90
2023-02-15T19:44:52.453Z,6.80
2023-02-15T19:47:24.613Z,6.80
2023-02-15T19:50:05.732Z,6.70
2023-02-15T19:52:38.866Z,6.80
2023-02-15T19:55:30.404Z,6.70
2023-02-15T19:58:36.427Z,6.60
2023-02-15T20:01:25.578Z,6.50
2023-02-15T20:03:59.573Z,6.50
2023-02-15T20:06:49.033Z,6.50
2023-02-15T20:09:32.150Z,6.50
2023-02-15T20:12:33.898Z,6.40
2023-02-15T20:15:40.389Z,6.30
2023-02-15T20:18:12.577Z,6.30
2023-02-15T20:20:55.064Z,6.20
2023-02-15T20:26:43.407Z,6.10
2023-02-15T20:29:35.247Z,6.10
2023-02-15T20:32:19.794Z,6.00
2023-02-15T20:41:31.792Z,6.10
2023-02-15T20:44:37.706Z,6.00
2023-02-15T20:47:27.545Z,6.00
2023-02-15T20:55:57.042Z,5.90
2023-02-15T21:01:30.185Z,5.80
2023-02-15T21:04:19.571Z,5.80
2023-02-15T21:06:53.750Z,5.80
2023-02-15T21:09:52.116Z,5.70
2023-02-15T21:12:47.256Z,5.60
2023-02-15T21:15:42.126Z,5.50
2023-02-15T21:46:34.358Z,5.10
2023-02-15T21:49:22.496Z,5.10
2023-02-15T21:52:09.918Z,4.90
2023-02-15T21:54:50.333Z,5.00
2023-02-15T21:57:26.159Z,5.00
2023-02-15T21:59:58.295Z,4.90
2023-02-15T22:02:51.777Z,5.00
2023-02-15T22:05:58.242Z,4.90
2023-02-15T22:08:36.743Z,4.90
2023-02-15T22:14:07.550Z,4.70
2023-02-15T22:16:54.176Z,4.70
2023-02-15T22:19:29.044Z,4.70
2023-02-15T22:22:04.535Z,4.70
2023-02-15T22:24:49.369Z,4.70
2023-02-15T22:27:44.664Z,4.70
2023-02-15T22:30:40.735Z,4.70
2023-02-15T22:33:30.790Z,4.60
2023-02-15T22:36:13.024Z,4.60
2023-02-15T22:38:59.380Z,4.60
2023-02-15T22:44:45.411Z,4.60
2023-02-15T22:47:44.679Z,4.60
2023-02-15T22:50:47.386Z,4.60
2023-02-15T22:53:35.402Z,4.60
2023-02-15T22:56:39.110Z,4.50
2023-02-15T22:59:45.633Z,4.50
2023-02-15T23:02:27.761Z,4.50
2023-02-15T23:05:05.698Z,4.50
2023-02-15T23:10:34.953Z,4.40
2023-02-15T23:13:33.308Z,4.30
2023-02-15T23:16:11.643Z,4.30
2023-02-15T23:18:50.796Z,4.30
2023-02-15T23:21:38.642Z,4.40
2023-02-15T23:24:43.762Z,4.30
2023-02-15T23:30:47.491Z,4.10
2023-02-15T23:36:57.953Z,4.20
2023-02-15T23:39:45.389Z,4.20
2023-02-15T23:42:24.849Z,4.10
2023-02-15T23:51:11.301Z,4.00
2023-02-15T23:54:22.253Z,4.10
2023-02-15T23:57:19.049Z,4.00
